Last 30 Days

AM-Summit 8643' (Ward Mt.)

Daily Data | America/Los_Angeles
as of 6/27/22 5:18 PM PDT
Date Daily Max Temp (°F) Time of Max Temp Daily Min Temp (°F) Time of Min Temp Wind Spd (mph) Daily Max Wind (mph) Time of Max Wind Max Wind Dir (°) Dew Pt (°F) Max RH (%) Min RH (%) Max Wet Bulb Temp (°F) Min Wet Bulb Temp (°F) WetB Hrs <28F (hrs) Min Wind Chill (°F) MinBV Day (V)
6/22/22 71.1 1258 51.0 2111 - 0.0 1911 N | 2 29.7 62 19 52.1 38.6 0.0 55.5 13.1
6/21/22 70.6 1725 43.7 0442 - 0.0 1651 NNE | 28 23.4 51 16 48.3 35.3 0.0 47.3 13.1
6/20/22 67.5 1637 36.7 0543 - 0.0 1548 NNE | 27 29.8 92 19 48.6 33.5 0.0 39.2 13.1
6/19/22 52.8 1721 28.6 0542 - 0.0 1233 NE | 56 31.1 99 39 44.5 28.5 0.0 31.2 13.1
6/18/22 45.3 1439 27.8 0452 - 0.0 1333 WSW | 257 27.6 98 45 37.4 27.6 0.0 29.8 13.1
6/17/22 45.4 1624 29.7 2334 - 0.0 1609 N | 1 19.6 96 18 37.4 23.5 0.0 41.9 13.1
6/16/22 58.6 1426 41.8 2357 - 0.0 1007 N | 6 28.3 68 25 46.7 33.8 0.0 50.6 13.0
6/15/22 68.0 1525 43.4 0547 - 0.0 2050 N | 1 27.6 49 17 49.9 33.0 0.0 45.6 13.1
6/14/22 61.3 1749 33.2 0143 0.0 0.0 0757 N | 5 24.7 69 24 46.7 28.3 0.0 35.0 13.1
6/13/22 52.6 1834 32.5 0707 - 0.0 0958 N | 4 33.8 100 48 44.3 29.4 0.0 38.3 13.1
6/12/22 50.9 0003 38.3 2335 - 0.0 0635 N | 9 43.3 100 63 48.8 38.3 0.0 50.9 13.1
6/11/22 66.8 1632 50.9 2351 - 0.1 0901 N | 0 40.7 91 33 53.8 43.3 0.0 53.8 13.0
6/10/22 72.2 1543 53.6 2350 - 0.1 0833 SE | 124 36.3 66 18 52.9 43.0 0.0 56.2 13.1
6/9/22 69.0 1613 51.7 0328 - 0.2 1412 ENE | 63 40.3 72 33 55.6 40.8 0.0 53.3 13.1
6/8/22 64.2 1542 49.8 0242 - 0.0 1433 N | 0 25.3 76 8 51.1 33.1 0.0 53.1 13.1
6/7/22 63.8 1705 48.3 0001 - 0.0 0649 N | 0 12.6 50 5 48.0 30.8 0.0 48.3 13.1
6/6/22 58.6 1625 33.5 0436 - 0.0 1304 NE | 43 27.5 100 5 48.5 31.2 0.0 39.4 13.1
6/5/22 46.4 1443 36.7 0207 - 0.0 0842 NNE | 16 41.8 100 100 46.4 36.7 0.0 37.3 13.1
6/4/22 42.1 0002 33.9 0534 - 0.0 1203 N | 4 36.3 100 73 41.9 32.3 0.0 42.0 13.1
6/3/22 55.1 1354 41.1 0600 - 0.0 2247 N | 0 37.0 98 48 45.5 37.8 0.0 43.7 13.1
6/2/22 60.4 1527 43.7 2354 0.0 0.0 1353 NE | 51 30.4 75 33 47.3 35.4 0.0 48.8 13.1
6/1/22 63.4 1719 40.4 0220 0.0 0.0 1600 N | 10 25.5 55 27 47.6 31.1 0.0 41.2 13.1
5/31/22 56.0 1659 27.8 0449 0.0 0.0 1801 N | 6 24.5 85 29 41.8 26.1 0.0 31.6 13.1
5/30/22 48.0 1746 29.9 0321 - 0.0 0237 N | 0 28.0 89 53 40.4 27.6 0.0 32.4 13.1
5/29/22 45.9 1610 28.4 0730 - 0.1 1036 SSW | 200 31.6 100 62 41.2 28.4 0.0 32.1 13.1
5/28/22 40.9 1249 31.2 0447 - 0.0 2001 N | 8 34.5 100 80 39.5 30.9 0.0 38.0 13.1
Max 72.2 - 53.6 - 0.0 0.2 - - 43.3 100 100 55.6 43.3 0.0 56.2 13.1
Avg - - - - 0.0 - - - 30.4 - - - - - - -
Min 40.9 - 27.8 - 0.0 0.0 - - 12.6 49 5 37.4 23.5 0.0 29.8 13.0